Time;durP1;ratioP1;P1;durP2;ratioP2;P2;SDS_P1;SDS_P2;PMS_P1;PMS_P2;Temp;Humidity;BMP_temperature;BMP_pressure;BME280_temperature;BME280_humidity;BME280_pressure;Samples;Min_cycle;Max_cycle;Signal;HPM_P1;HPM_P2
2022/05/12 00:02:06;;;;;;;3.92;3.55;;;17.30;99.90;;;;;;5051620;28;20466;-75
2022/05/12 00:04:34;;;;;;;4.50;3.75;;;17.30;99.90;;;;;;5048826;28;20037;-73
2022/05/12 00:07:00;;;;;;;7.60;4.00;;;17.40;99.90;;;;;;5048908;28;20481;-73
2022/05/12 00:09:27;;;;;;;5.60;3.70;;;17.40;99.90;;;;;;5047529;28;20044;-73
2022/05/12 00:11:54;;;;;;;7.35;3.63;;;17.40;99.90;;;;;;5052013;28;20035;-73
2022/05/12 00:14:21;;;;;;;4.45;3.55;;;17.40;99.90;;;;;;5059898;28;20043;-73
2022/05/12 00:16:47;;;;;;;5.50;3.85;;;17.40;99.90;;;;;;5037323;28;20049;-73
2022/05/12 00:19:14;;;;;;;7.60;4.18;;;17.40;99.90;;;;;;5058012;28;20033;-73
2022/05/12 00:21:40;;;;;;;8.88;3.80;;;17.40;99.90;;;;;;5057065;28;20037;-73
2022/05/12 00:24:07;;;;;;;9.30;3.08;;;17.30;99.90;;;;;;5051756;28;20382;-75
2022/05/12 00:26:35;;;;;;;8.05;3.75;;;17.30;99.90;;;;;;5051559;28;20033;-73
2022/05/12 00:29:05;;;;;;;5.38;3.50;;;17.30;99.90;;;;;;5052051;28;20034;-74
2022/05/12 00:31:34;;;;;;;5.65;3.30;;;17.40;99.90;;;;;;5031202;28;20473;-74
2022/05/12 00:34:00;;;;;;;7.97;3.90;;;17.40;99.90;;;;;;5060367;28;20040;-74
2022/05/12 00:36:27;;;;;;;4.32;3.92;;;17.40;99.90;;;;;;5050411;28;20044;-73
2022/05/12 00:38:53;;;;;;;7.38;3.55;;;17.50;99.90;;;;;;5046177;28;20055;-74
2022/05/12 00:41:19;;;;;;;5.20;4.20;;;17.40;99.90;;;;;;5071082;28;20029;-73
2022/05/12 00:43:51;;;;;;;6.55;3.95;;;17.30;99.90;;;;;;5052901;28;20039;-73
2022/05/12 00:46:26;;;;;;;5.80;3.28;;;17.20;99.90;;;;;;5064671;28;20043;-73
2022/05/12 00:48:57;;;;;;;7.40;4.28;;;17.00;99.90;;;;;;5068377;28;20492;-73
2022/05/12 00:51:30;;;;;;;4.57;4.10;;;16.90;99.90;;;;;;5065880;28;20473;-73
2022/05/12 00:54:00;;;;;;;7.43;4.22;;;16.80;99.90;;;;;;5070940;28;20043;-73
2022/05/12 00:56:27;;;;;;;5.18;3.28;;;16.70;99.90;;;;;;5069259;28;20097;-73
2022/05/12 00:59:01;;;;;;;6.85;3.53;;;16.70;99.90;;;;;;5069699;28;20041;-73
2022/05/12 01:01:27;;;;;;;3.67;3.35;;;16.90;99.90;;;;;;5067422;28;20025;-73
2022/05/12 01:03:57;;;;;;;4.88;2.80;;;17.00;99.90;;;;;;5053211;28;20032;-73
2022/05/12 01:06:24;;;;;;;6.88;3.10;;;17.10;99.90;;;;;;5067384;28;20037;-73
2022/05/12 01:08:50;;;;;;;3.03;1.73;;;17.20;99.90;;;;;;5069481;28;20044;-73
2022/05/12 01:11:19;;;;;;;3.47;1.48;;;17.50;99.90;;;;;;5070502;28;20032;-73
2022/05/12 01:13:52;;;;;;;2.65;1.75;;;18.00;99.90;;;;;;5065036;28;20040;-73
2022/05/12 01:16:42;;;;;;;1.92;1.25;;;18.20;99.70;;;;;;5074833;28;20028;-73
2022/05/12 01:19:19;;;;;;;1.50;1.13;;;18.40;98.10;;;;;;5047915;28;20033;-73
2022/05/12 01:21:47;;;;;;;2.25;1.17;;;18.40;97.30;;;;;;5056242;28;20039;-72
2022/05/12 01:24:14;;;;;;;2.70;1.13;;;18.40;96.30;;;;;;5074060;28;20036;-72
2022/05/12 01:26:41;;;;;;;5.25;1.65;;;18.50;95.50;;;;;;5070197;28;20044;-72
2022/05/12 01:29:08;;;;;;;5.05;1.63;;;18.60;95.00;;;;;;5072792;28;20035;-75
2022/05/12 01:31:35;;;;;;;2.88;1.88;;;18.90;94.20;;;;;;5074188;28;20056;-72
2022/05/12 01:34:05;;;;;;;1.00;0.90;;;19.00;93.70;;;;;;5074233;28;20044;-73
2022/05/12 01:36:31;;;;;;;2.72;1.30;;;19.20;92.20;;;;;;5071751;28;20040;-73
2022/05/12 01:38:58;;;;;;;4.28;1.20;;;19.30;92.00;;;;;;5070498;28;20053;-72
2022/05/12 01:41:24;;;;;;;1.60;1.20;;;19.20;92.40;;;;;;5073659;28;20024;-72
2022/05/12 01:43:51;;;;;;;1.35;1.13;;;19.30;91.40;;;;;;5071784;28;20045;-73
2022/05/12 01:46:17;;;;;;;0.80;0.80;;;19.30;91.10;;;;;;5067949;28;20037;-72
2022/05/12 01:48:43;;;;;;;2.20;1.40;;;19.40;90.10;;;;;;5068472;28;20296;-73
2022/05/12 01:51:10;;;;;;;1.70;1.25;;;19.50;89.60;;;;;;5070033;28;20386;-74
2022/05/12 01:53:38;;;;;;;1.63;1.08;;;19.40;90.50;;;;;;5055759;28;20040;-72
2022/05/12 01:56:06;;;;;;;3.55;1.30;;;19.30;89.90;;;;;;5072502;28;20045;-72
2022/05/12 01:58:33;;;;;;;2.80;1.00;;;19.30;89.30;;;;;;5072300;28;20039;-73
2022/05/12 02:00:59;;;;;;;4.57;1.27;;;19.30;88.20;;;;;;5073923;28;20036;-72
2022/05/12 02:03:25;;;;;;;3.20;1.42;;;19.40;87.80;;;;;;5073185;28;20051;-73
2022/05/12 02:05:51;;;;;;;1.00;0.90;;;19.30;88.10;;;;;;5051878;28;20048;-73
2022/05/12 02:08:19;;;;;;;2.15;1.20;;;19.20;88.20;;;;;;5072364;28;20560;-73
2022/05/12 02:10:49;;;;;;;3.65;1.60;;;19.20;87.90;;;;;;5068917;28;20028;-72
2022/05/12 02:13:18;;;;;;;2.30;1.38;;;19.10;88.70;;;;;;5061192;28;20033;-72
2022/05/12 02:15:44;;;;;;;2.58;0.90;;;19.10;89.20;;;;;;5069880;28;20024;-73
2022/05/12 02:18:11;;;;;;;3.65;1.58;;;19.00;88.20;;;;;;5054088;28;20056;-73
2022/05/12 02:20:37;;;;;;;1.75;1.05;;;19.10;86.80;;;;;;5072851;28;20034;-72
2022/05/12 02:23:04;;;;;;;1.73;1.25;;;19.10;88.70;;;;;;5055232;28;20028;-73
2022/05/12 02:25:30;;;;;;;3.80;1.60;;;18.90;89.60;;;;;;5073018;28;20028;-71
2022/05/12 02:27:56;;;;;;;6.75;1.50;;;18.90;89.30;;;;;;5072690;28;20056;-72
2022/05/12 02:30:26;;;;;;;5.72;1.17;;;18.90;90.00;;;;;;5071613;28;20028;-72
2022/05/12 02:32:52;;;;;;;1.70;0.80;;;18.80;88.80;;;;;;5073465;28;20032;-72
2022/05/12 02:35:19;;;;;;;1.45;1.08;;;18.90;88.90;;;;;;5072339;28;20025;-73
2022/05/12 02:37:46;;;;;;;2.65;1.40;;;18.90;89.10;;;;;;5054913;28;20048;-72
2022/05/12 02:40:17;;;;;;;0.98;0.90;;;18.90;88.50;;;;;;5052625;28;20051;-73
2022/05/12 02:42:43;;;;;;;1.35;0.90;;;18.80;88.10;;;;;;5071227;28;20389;-72
2022/05/12 02:45:10;;;;;;;2.17;1.20;;;18.90;88.60;;;;;;5069413;28;20029;-74
2022/05/12 02:47:37;;;;;;;2.28;0.95;;;18.80;89.00;;;;;;5050816;28;20067;-72
2022/05/12 02:50:05;;;;;;;2.10;1.33;;;18.80;89.50;;;;;;5068885;28;20020;-72
2022/05/12 02:52:31;;;;;;;1.40;1.15;;;18.70;90.10;;;;;;5067200;28;20041;-72
2022/05/12 02:54:57;;;;;;;2.25;1.35;;;18.60;90.00;;;;;;5072555;28;20029;-72
2022/05/12 02:57:23;;;;;;;2.13;1.73;;;18.60;90.30;;;;;;5072571;28;20559;-72
2022/05/12 02:59:49;;;;;;;2.47;0.95;;;18.50;90.70;;;;;;5072074;28;20036;-72
2022/05/12 03:02:16;;;;;;;4.28;1.30;;;18.30;91.10;;;;;;5065820;28;20047;-72
2022/05/12 03:04:42;;;;;;;2.15;1.60;;;18.20;91.20;;;;;;5046509;28;20041;-72
2022/05/12 03:07:08;;;;;;;4.97;1.27;;;18.20;91.10;;;;;;5072612;28;20036;-75
2022/05/12 03:09:34;;;;;;;2.58;1.20;;;18.30;91.30;;;;;;5071057;28;20462;-72
2022/05/12 03:12:00;;;;;;;4.93;1.58;;;18.10;91.80;;;;;;5072726;28;20044;-72
2022/05/12 03:14:27;;;;;;;1.80;1.17;;;18.10;91.60;;;;;;5054171;28;20500;-72
2022/05/12 03:16:53;;;;;;;4.78;1.17;;;18.10;91.50;;;;;;5072627;28;20377;-72
2022/05/12 03:19:21;;;;;;;0.98;0.70;;;18.10;92.00;;;;;;5062476;28;20048;-72
2022/05/12 03:21:47;;;;;;;6.40;1.67;;;18.10;91.20;;;;;;5072711;28;20032;-72
2022/05/12 03:24:18;;;;;;;7.93;3.30;;;18.10;91.60;;;;;;5067297;28;20044;-71
2022/05/12 03:26:46;;;;;;;2.53;1.10;;;18.10;91.60;;;;;;5072183;28;20024;-72
2022/05/12 03:29:13;;;;;;;8.00;1.73;;;18.10;91.40;;;;;;5064784;28;20416;-72
2022/05/12 03:31:39;;;;;;;4.75;1.98;;;18.10;91.20;;;;;;5054324;28;20045;-72
2022/05/12 03:34:06;;;;;;;13.98;1.75;;;18.10;91.60;;;;;;5072081;28;20025;-74
2022/05/12 03:36:38;;;;;;;1.48;1.02;;;18.00;92.40;;;;;;5068017;28;20354;-72
2022/05/12 03:39:07;;;;;;;1.95;0.68;;;17.80;92.60;;;;;;5070166;28;20482;-73
2022/05/12 03:41:33;;;;;;;0.80;0.80;;;17.80;93.10;;;;;;5067796;28;20469;-71
2022/05/12 03:46:44;;;;;;;1.02;0.93;;;17.70;93.30;;;;;;5051796;28;20041;-72
2022/05/12 03:49:10;;;;;;;0.85;0.75;;;17.70;93.40;;;;;;5052135;28;20476;-75
2022/05/12 03:51:37;;;;;;;1.33;0.88;;;17.70;93.60;;;;;;5072016;28;20032;-71
2022/05/12 03:54:03;;;;;;;0.77;0.45;;;17.80;93.40;;;;;;5067772;28;20039;-73
2022/05/12 03:56:31;;;;;;;1.02;0.77;;;17.90;93.40;;;;;;5071069;28;20032;-73
2022/05/12 03:58:58;;;;;;;1.77;0.95;;;17.90;93.10;;;;;;5052416;28;20049;-72
2022/05/12 04:01:25;;;;;;;1.08;0.60;;;18.00;93.50;;;;;;5038773;28;20469;-73
2022/05/12 04:03:51;;;;;;;1.88;0.88;;;18.00;93.20;;;;;;5049617;28;20496;-72
2022/05/12 04:06:18;;;;;;;1.15;0.47;;;18.10;93.10;;;;;;5067535;28;20373;-72
2022/05/12 04:08:44;;;;;;;0.50;0.43;;;18.10;93.20;;;;;;5069267;28;20037;-73
2022/05/12 04:11:10;;;;;;;5.03;1.05;;;18.20;92.80;;;;;;5069690;28;20028;-74
2022/05/12 04:13:37;;;;;;;0.80;0.52;;;18.20;92.40;;;;;;5069800;28;20029;-71
2022/05/12 04:16:04;;;;;;;2.60;0.70;;;18.30;92.20;;;;;;5071027;28;20025;-74
2022/05/12 04:18:30;;;;;;;1.35;0.75;;;18.30;91.90;;;;;;5070727;28;20032;-72
2022/05/12 04:20:56;;;;;;;1.23;0.77;;;18.40;92.10;;;;;;5069389;28;20029;-72
2022/05/12 04:23:22;;;;;;;2.58;0.68;;;18.40;91.70;;;;;;5070459;28;20035;-72
2022/05/12 04:25:48;;;;;;;1.20;0.93;;;18.40;92.00;;;;;;5069878;28;20036;-72
2022/05/12 04:28:15;;;;;;;0.77;0.70;;;18.30;92.40;;;;;;5066561;28;20488;-72
2022/05/12 04:30:41;;;;;;;0.63;0.50;;;18.30;92.20;;;;;;5069526;28;20029;-72
2022/05/12 04:35:52;;;;;;;1.83;0.68;;;18.40;92.10;;;;;;5069396;28;20040;-72
2022/05/12 04:38:18;;;;;;;0.90;0.65;;;18.40;92.10;;;;;;5070616;28;20063;-72
2022/05/12 04:40:44;;;;;;;1.48;0.50;;;18.40;91.90;;;;;;5051866;28;20043;-72
2022/05/12 04:43:10;;;;;;;0.50;0.40;;;18.40;91.90;;;;;;5070364;28;20043;-74
2022/05/12 04:45:37;;;;;;;0.73;0.60;;;18.40;92.50;;;;;;5071451;28;20025;-71
2022/05/12 04:48:03;;;;;;;1.13;0.80;;;18.40;92.20;;;;;;5070746;28;20045;-71
2022/05/12 04:50:34;;;;;;;2.40;0.85;;;18.30;92.30;;;;;;5071054;28;20025;-72
2022/05/12 04:53:01;;;;;;;0.77;0.50;;;18.40;92.80;;;;;;5075522;28;20039;-72
2022/05/12 04:55:28;;;;;;;0.82;0.43;;;18.40;92.70;;;;;;5070064;28;20140;-72
2022/05/12 04:57:56;;;;;;;2.47;0.60;;;18.30;92.60;;;;;;5057151;28;20033;-72
2022/05/12 05:00:38;;;;;;;0.88;0.60;;;18.40;92.60;;;;;;5071256;28;20048;-72
2022/05/12 05:03:05;;;;;;;0.85;0.57;;;18.70;93.00;;;;;;5071229;28;20024;-72
2022/05/12 05:05:31;;;;;;;0.60;0.50;;;19.40;91.00;;;;;;5073548;28;20043;-72
2022/05/12 05:07:57;;;;;;;1.30;0.90;;;19.80;90.10;;;;;;5074594;28;20044;-72
2022/05/12 05:10:24;;;;;;;1.70;1.00;;;20.00;86.90;;;;;;5072658;28;20048;-72
2022/05/12 05:12:50;;;;;;;0.40;0.40;;;19.80;88.90;;;;;;5070795;28;20514;-73
2022/05/12 05:15:17;;;;;;;0.80;0.40;;;19.70;87.60;;;;;;5070849;28;20029;-72
2022/05/12 05:17:44;;;;;;;1.73;0.68;;;19.30;90.30;;;;;;5054716;28;20036;-72
2022/05/12 05:20:15;;;;;;;1.13;0.57;;;19.20;90.10;;;;;;5067275;28;20032;-75
2022/05/12 05:22:41;;;;;;;0.77;0.60;;;19.10;90.10;;;;;;5074424;28;20036;-74
2022/05/12 05:25:07;;;;;;;0.30;0.30;;;19.00;90.70;;;;;;5067558;28;20484;-74
2022/05/12 05:27:34;;;;;;;0.55;0.40;;;19.00;90.50;;;;;;5065506;28;20055;-74
2022/05/12 05:30:01;;;;;;;0.82;0.65;;;18.90;90.90;;;;;;5072055;28;20036;-74
2022/05/12 05:32:27;;;;;;;0.63;0.50;;;18.80;91.10;;;;;;5055820;28;20033;-75
2022/05/12 05:34:53;;;;;;;0.80;0.50;;;18.70;91.10;;;;;;5074399;28;20033;-75
2022/05/12 05:37:20;;;;;;;0.75;0.50;;;18.70;91.40;;;;;;5052034;28;20393;-75
2022/05/12 05:39:46;;;;;;;1.42;0.63;;;18.70;91.80;;;;;;5056045;28;20480;-74
2022/05/12 05:42:15;;;;;;;0.80;0.60;;;18.60;91.30;;;;;;5056129;28;20044;-75
2022/05/12 05:44:42;;;;;;;0.82;0.70;;;18.60;91.60;;;;;;5066747;28;20025;-76
2022/05/12 05:47:09;;;;;;;8.38;1.20;;;18.60;92.30;;;;;;5042029;28;20029;-75
2022/05/12 05:49:37;;;;;;;1.05;0.57;;;18.70;92.60;;;;;;5047781;28;20033;-75
2022/05/12 05:54:49;;;;;;;1.02;0.73;;;19.00;92.60;;;;;;5071509;28;20024;-75
2022/05/12 05:57:23;;;;;;;1.58;1.02;;;19.10;92.40;;;;;;5054305;28;20032;-75
2022/05/12 05:59:52;;;;;;;1.15;0.95;;;19.10;92.00;;;;;;5070957;28;20041;-75
2022/05/12 06:02:18;;;;;;;0.63;0.50;;;19.20;92.10;;;;;;5071107;28;20416;-74
2022/05/12 06:04:45;;;;;;;0.70;0.70;;;19.10;91.90;;;;;;5073447;28;20048;-75
2022/05/12 06:07:11;;;;;;;2.72;1.05;;;19.20;92.20;;;;;;5054653;28;20048;-75
2022/05/12 06:09:37;;;;;;;1.77;1.13;;;19.10;92.00;;;;;;5072870;28;20462;-75
2022/05/12 06:12:04;;;;;;;0.80;0.68;;;19.20;92.50;;;;;;5073642;28;20029;-75
2022/05/12 06:14:33;;;;;;;0.93;0.68;;;19.00;91.70;;;;;;5073418;28;20025;-74
2022/05/12 06:16:59;;;;;;;1.17;0.70;;;19.00;91.80;;;;;;5055639;28;20032;-75
2022/05/12 06:19:25;;;;;;;0.80;0.70;;;19.00;92.70;;;;;;5070129;28;20039;-76
2022/05/12 06:21:51;;;;;;;1.40;0.65;;;19.10;92.60;;;;;;5071935;28;20037;-75
2022/05/12 06:24:18;;;;;;;1.60;0.88;;;19.20;92.30;;;;;;5068986;28;20028;-75
2022/05/12 06:26:44;;;;;;;1.30;0.70;;;19.20;91.60;;;;;;5061962;28;20044;-76
2022/05/12 06:29:10;;;;;;;2.08;0.95;;;19.10;92.30;;;;;;5069640;28;20041;-79
2022/05/12 06:31:36;;;;;;;0.95;0.70;;;19.30;92.50;;;;;;5073474;28;20037;-77
2022/05/12 06:34:02;;;;;;;1.55;0.82;;;19.40;90.90;;;;;;5068451;28;20024;-78
2022/05/12 06:36:29;;;;;;;0.52;0.45;;;19.30;90.60;;;;;;5067577;28;20028;-76
2022/05/12 06:38:55;;;;;;;0.47;0.45;;;19.10;90.50;;;;;;5068815;28;20064;-77
2022/05/12 06:41:24;;;;;;;0.30;0.30;;;19.10;91.10;;;;;;5049438;28;21144;-74
2022/05/12 06:43:50;;;;;;;1.05;0.63;;;19.00;90.80;;;;;;5063354;28;20465;-73
2022/05/12 06:46:18;;;;;;;0.60;0.45;;;18.90;91.00;;;;;;5070027;28;20028;-74
2022/05/12 06:48:46;;;;;;;0.90;0.60;;;18.80;91.60;;;;;;5071153;28;20032;-74
2022/05/12 06:51:17;;;;;;;0.45;0.43;;;18.80;91.80;;;;;;5066387;28;20385;-74
2022/05/12 06:53:43;;;;;;;1.13;0.77;;;18.90;92.10;;;;;;5071457;28;20036;-74
2022/05/12 06:56:10;;;;;;;1.23;0.77;;;18.70;91.20;;;;;;5072024;28;20036;-78
2022/05/12 06:58:37;;;;;;;1.38;0.50;;;18.70;91.50;;;;;;5072440;28;20389;-75
2022/05/12 07:01:04;;;;;;;1.20;0.52;;;18.70;91.40;;;;;;5054207;28;20048;-75
2022/05/12 07:03:30;;;;;;;3.33;0.95;;;18.80;91.50;;;;;;5070904;28;20485;-73
2022/05/12 07:05:57;;;;;;;0.82;0.68;;;19.00;91.50;;;;;;5072670;28;20024;-76
2022/05/12 07:08:25;;;;;;;0.57;0.50;;;19.10;91.00;;;;;;5068048;28;20041;-75
2022/05/12 07:10:52;;;;;;;0.43;0.40;;;19.10;90.30;;;;;;5068375;28;20032;-76
2022/05/12 07:13:20;;;;;;;0.40;0.40;;;19.20;90.00;;;;;;5068157;28;20039;-74
2022/05/12 07:15:50;;;;;;;1.50;0.68;;;19.40;90.40;;;;;;5071566;28;20033;-74
2022/05/12 07:18:19;;;;;;;0.93;0.75;;;19.50;88.80;;;;;;5047513;28;20045;-74
2022/05/12 07:29:00;;;;;;;1.30;0.50;;;20.10;86.70;;;;;;5071308;28;20040;-75
2022/05/12 07:31:26;;;;;;;0.82;0.50;;;20.10;80.50;;;;;;5070397;28;20377;-75
2022/05/12 07:33:52;;;;;;;0.65;0.55;;;20.20;82.30;;;;;;5053915;28;20453;-75
2022/05/12 07:36:23;;;;;;;1.77;0.82;;;20.10;78.70;;;;;;5071693;28;20040;-75
2022/05/12 07:38:50;;;;;;;1.08;0.40;;;20.20;79.40;;;;;;5071671;28;20056;-75
2022/05/12 07:41:17;;;;;;;0.60;0.57;;;20.40;78.30;;;;;;5033118;28;20037;-76
2022/05/12 07:43:45;;;;;;;0.63;0.45;;;20.40;77.40;;;;;;5047459;28;20028;-76
2022/05/12 07:46:13;;;;;;;0.50;0.30;;;20.50;78.70;;;;;;5071514;28;20040;-78
2022/05/12 07:48:40;;;;;;;1.90;0.50;;;20.70;79.40;;;;;;5070132;28;20367;-75
2022/05/12 07:51:07;;;;;;;1.20;0.75;;;21.20;76.40;;;;;;5052865;28;20040;-75
2022/05/12 07:53:34;;;;;;;3.75;0.63;;;21.90;75.70;;;;;;5063090;28;20048;-76
2022/05/12 07:56:01;;;;;;;0.70;0.70;;;22.30;72.90;;;;;;5062034;28;20028;-75
2022/05/12 07:58:27;;;;;;;0.30;0.30;;;22.30;72.50;;;;;;5043996;28;20482;-76
2022/05/12 08:00:53;;;;;;;1.08;0.55;;;23.00;71.80;;;;;;5071257;28;20025;-76
2022/05/12 08:03:20;;;;;;;0.47;0.47;;;23.50;69.60;;;;;;5069004;28;21767;-76
2022/05/12 08:05:47;;;;;;;0.50;0.50;;;22.70;71.90;;;;;;5071708;28;20032;-76
2022/05/12 08:08:13;;;;;;;2.20;0.65;;;22.50;71.70;;;;;;5069338;28;20051;-77
2022/05/12 08:10:40;;;;;;;0.73;0.60;;;22.70;71.50;;;;;;5071530;28;20048;-76
2022/05/12 08:13:14;;;;;;;0.95;0.52;;;22.80;70.90;;;;;;5068929;28;20032;-76
2022/05/12 08:15:46;;;;;;;0.55;0.35;;;22.90;67.50;;;;;;5069954;28;20085;-76
2022/05/12 08:18:13;;;;;;;0.50;0.50;;;22.60;65.60;;;;;;5048992;28;20052;-78
2022/05/12 08:20:39;;;;;;;0.50;0.38;;;22.60;65.60;;;;;;5048336;28;20473;-75
2022/05/12 08:23:05;;;;;;;0.50;0.40;;;22.80;65.70;;;;;;5059893;28;20043;-75
2022/05/12 08:25:32;;;;;;;0.57;0.47;;;23.50;64.20;;;;;;5041577;28;20055;-76
2022/05/12 08:27:58;;;;;;;0.60;0.60;;;23.10;64.20;;;;;;5070519;28;20039;-75
2022/05/12 08:30:25;;;;;;;0.43;0.43;;;23.30;64.00;;;;;;5049032;28;20048;-74
2022/05/12 08:32:52;;;;;;;0.63;0.50;;;23.60;62.80;;;;;;5064816;28;20036;-77
2022/05/12 08:35:18;;;;;;;1.02;0.57;;;23.50;62.50;;;;;;5063841;28;20060;-75
2022/05/12 08:37:44;;;;;;;0.50;0.32;;;23.60;62.30;;;;;;5066935;28;20041;-75
2022/05/12 08:40:34;;;;;;;0.40;0.40;;;24.10;60.20;;;;;;5070497;28;20492;-77
2022/05/12 08:43:05;;;;;;;;;;;24.60;58.70;;;;;;5065285;28;20409;-76
2022/05/12 08:45:31;;;;;;;0.65;0.50;;;25.80;57.80;;;;;;5043653;28;19904;-76
2022/05/12 08:47:58;;;;;;;0.47;0.47;;;26.40;56.90;;;;;;5070196;28;20047;-76
2022/05/12 08:50:28;;;;;;;0.30;0.30;;;26.40;56.10;;;;;;5046658;28;20374;-76
2022/05/12 08:53:05;;;;;;;0.55;0.40;;;26.30;55.80;;;;;;5070923;28;20127;-76
2022/05/12 08:55:52;;;;;;;2.80;0.68;;;27.20;54.50;;;;;;5061641;28;20108;-76
2022/05/12 08:58:23;;;;;;;0.93;0.60;;;26.80;54.80;;;;;;5070577;28;20056;-75
2022/05/12 09:01:00;;;;;;;3.03;0.80;;;26.30;54.10;;;;;;5066931;28;20033;-76
2022/05/12 09:03:57;;;;;;;5.55;0.80;;;25.80;55.30;;;;;;5051129;28;20509;-75
2022/05/12 09:06:49;;;;;;;0.50;0.40;;;25.20;55.10;;;;;;5050154;28;20048;-76
2022/05/12 09:09:25;;;;;;;2.20;0.55;;;24.30;56.10;;;;;;5072027;28;20044;-75
2022/05/12 09:12:20;;;;;;;0.40;0.30;;;23.60;57.30;;;;;;5044432;28;20107;-75
2022/05/12 09:14:53;;;;;;;0.77;0.70;;;22.70;58.90;;;;;;5064614;28;20035;-75
2022/05/12 09:17:22;;;;;;;0.30;0.30;;;22.20;60.50;;;;;;5065495;28;20480;-74
2022/05/12 09:19:48;;;;;;;0.45;0.40;;;22.50;59.50;;;;;;5066680;28;20037;-76
2022/05/12 09:22:22;;;;;;;0.35;0.35;;;23.00;59.30;;;;;;5043621;28;20045;-76
2022/05/12 09:24:48;;;;;;;1.48;0.35;;;23.70;58.00;;;;;;5063619;28;20032;-75
2022/05/12 09:27:15;;;;;;;1.88;0.70;;;23.70;58.20;;;;;;5051094;28;20457;-75
2022/05/12 09:29:49;;;;;;;0.68;0.50;;;23.60;59.50;;;;;;5070639;28;20369;-75
2022/05/12 09:32:38;;;;;;;0.95;0.50;;;24.10;57.50;;;;;;5070022;28;20499;-76
2022/05/12 09:35:19;;;;;;;0.60;0.50;;;23.90;57.80;;;;;;5068061;28;20059;-76
2022/05/12 09:37:46;;;;;;;0.98;0.45;;;23.00;57.90;;;;;;5074358;28;20033;-75
2022/05/12 09:40:18;;;;;;;3.22;0.70;;;23.60;58.20;;;;;;5073270;28;20057;-78
2022/05/12 09:42:50;;;;;;;0.73;0.40;;;24.30;57.40;;;;;;5053308;28;20051;-75
2022/05/12 09:45:27;;;;;;;0.90;0.63;;;24.80;55.90;;;;;;5047705;28;20041;-76
2022/05/12 09:48:24;;;;;;;0.35;0.30;;;25.20;56.20;;;;;;5062403;28;20032;-77
2022/05/12 09:50:51;;;;;;;1.52;0.80;;;24.40;56.50;;;;;;5073127;28;20469;-75
2022/05/12 09:53:26;;;;;;;1.77;0.50;;;23.50;56.60;;;;;;5055561;28;20036;-76
2022/05/12 09:56:06;;;;;;;1.00;0.57;;;22.70;56.40;;;;;;5072236;28;20033;-76
2022/05/12 09:58:41;;;;;;;0.30;0.30;;;22.40;56.90;;;;;;5068798;28;20029;-75
2022/05/12 10:01:23;;;;;;;0.35;0.30;;;22.70;57.40;;;;;;5074736;28;20044;-76
2022/05/12 10:09:26;;;;;;;0.45;0.45;;;22.40;56.50;;;;;;5070418;28;20045;-74
2022/05/12 10:12:04;;;;;;;0.38;0.35;;;22.40;57.30;;;;;;5067435;28;20060;-76
2022/05/12 10:14:46;;;;;;;1.38;0.52;;;22.80;56.10;;;;;;5050593;28;20036;-77
2022/05/12 10:17:33;;;;;;;0.75;0.73;;;23.20;55.50;;;;;;5073089;28;20051;-78
2022/05/12 10:20:08;;;;;;;0.35;0.30;;;23.20;54.40;;;;;;5068171;28;20103;-76
2022/05/12 10:22:56;;;;;;;1.50;0.60;;;23.40;55.00;;;;;;5073640;28;20508;-75
2022/05/12 10:25:42;;;;;;;0.30;0.30;;;23.30;55.00;;;;;;5066539;28;20045;-74
2022/05/12 10:28:21;;;;;;;0.57;0.40;;;23.20;55.20;;;;;;5051879;28;20036;-74
2022/05/12 10:31:08;;;;;;;0.80;0.43;;;22.50;55.70;;;;;;5073251;28;20036;-74
2022/05/12 10:33:59;;;;;;;0.50;0.43;;;22.80;56.20;;;;;;5072802;28;20507;-75
2022/05/12 10:36:52;;;;;;;0.60;0.50;;;23.00;55.70;;;;;;5071873;28;20024;-76
2022/05/12 10:39:36;;;;;;;1.00;0.40;;;22.90;55.30;;;;;;5071392;28;20049;-75
2022/05/12 10:42:21;;;;;;;1.05;0.50;;;22.90;56.00;;;;;;5045181;28;20044;-74
2022/05/12 10:44:53;;;;;;;0.60;0.47;;;23.50;55.00;;;;;;5051455;28;20037;-80
2022/05/12 10:47:44;;;;;;;0.30;0.30;;;23.70;54.50;;;;;;5048983;28;20056;-80
2022/05/12 10:50:27;;;;;;;2.03;0.63;;;23.40;55.40;;;;;;5051932;28;20044;-76
2022/05/12 10:53:17;;;;;;;1.50;0.60;;;23.80;55.70;;;;;;5069145;28;20032;-75
2022/05/12 10:55:55;;;;;;;0.93;0.50;;;24.00;54.50;;;;;;5048897;28;20021;-80
2022/05/12 10:58:48;;;;;;;0.50;0.50;;;23.20;55.80;;;;;;5042862;28;20037;-76
2022/05/12 11:01:18;;;;;;;2.70;0.85;;;23.10;56.30;;;;;;5053246;28;20381;-76
2022/05/12 11:03:50;;;;;;;1.30;0.43;;;23.00;56.10;;;;;;5054658;28;20034;-81
2022/05/12 11:06:20;;;;;;;0.82;0.82;;;22.70;57.10;;;;;;5067015;28;20085;-75
2022/05/12 11:08:57;;;;;;;3.38;0.70;;;22.90;55.70;;;;;;5061518;28;20041;-78
2022/05/12 11:11:33;;;;;;;0.63;0.43;;;22.80;55.40;;;;;;5070931;28;20031;-78
2022/05/12 11:14:14;;;;;;;1.00;0.55;;;22.80;55.80;;;;;;5072439;28;20043;-78
2022/05/12 11:16:51;;;;;;;0.80;0.60;;;23.50;55.20;;;;;;5050211;28;20037;-75
2022/05/12 11:19:22;;;;;;;0.40;0.35;;;23.00;56.40;;;;;;5060239;28;20647;-76
2022/05/12 11:22:12;;;;;;;0.77;0.60;;;23.30;56.60;;;;;;5070714;28;20028;-79
2022/05/12 11:24:46;;;;;;;1.63;0.70;;;23.80;55.80;;;;;;5069468;28;20028;-76
2022/05/12 11:27:43;;;;;;;0.73;0.63;;;24.00;55.90;;;;;;5052247;28;20043;-76
2022/05/12 11:30:31;;;;;;;0.35;0.30;;;24.20;55.50;;;;;;5027343;28;20485;-76
2022/05/12 11:33:27;;;;;;;0.20;0.20;;;24.50;54.40;;;;;;5064685;28;20039;-78
2022/05/12 11:35:54;;;;;;;1.10;0.60;;;24.70;53.60;;;;;;5071240;28;20036;-77
2022/05/12 11:38:53;;;;;;;0.52;0.40;;;25.00;52.80;;;;;;5071607;28;20413;-76
2022/05/12 11:41:19;;;;;;;0.40;0.40;;;24.60;53.00;;;;;;5066041;28;20055;-76
2022/05/12 11:46:58;;;;;;;0.90;0.57;;;23.80;53.90;;;;;;5065565;28;20264;-76
2022/05/12 11:49:42;;;;;;;0.50;0.40;;;23.30;55.30;;;;;;5052690;28;20508;-77
2022/05/12 11:52:30;;;;;;;0.32;0.30;;;23.70;54.80;;;;;;5061321;28;20040;-77
2022/05/12 11:54:59;;;;;;;0.60;0.50;;;23.50;54.00;;;;;;5070078;28;20035;-82
2022/05/12 11:57:27;;;;;;;0.32;0.32;;;23.50;55.10;;;;;;5069358;28;20362;-75
2022/05/12 11:59:56;;;;;;;0.52;0.40;;;23.70;54.50;;;;;;5064956;28;20033;-77
2022/05/12 12:02:29;;;;;;;0.38;0.30;;;23.80;54.70;;;;;;5068972;28;20492;-75
2022/05/12 12:04:58;;;;;;;0.45;0.30;;;23.90;54.70;;;;;;5071754;28;20473;-75
2022/05/12 12:07:33;;;;;;;2.47;0.63;;;23.90;54.70;;;;;;5071234;28;20040;-76
2022/05/12 12:10:16;;;;;;;0.55;0.35;;;23.60;54.90;;;;;;5062194;28;20037;-76
2022/05/12 12:12:45;;;;;;;0.35;0.25;;;23.50;54.50;;;;;;5033679;28;20049;-75
2022/05/12 12:15:23;;;;;;;1.20;0.40;;;23.70;54.00;;;;;;5062708;28;20033;-77
2022/05/12 12:17:50;;;;;;;0.38;0.38;;;24.00;53.10;;;;;;5060562;28;20452;-75
2022/05/12 12:20:29;;;;;;;1.08;0.65;;;23.90;53.80;;;;;;5057305;28;20056;-81
2022/05/12 12:23:23;;;;;;;0.30;0.30;;;23.90;53.20;;;;;;5050764;28;20033;-75
2022/05/12 12:26:10;;;;;;;1.92;0.50;;;24.00;53.60;;;;;;5070799;28;20036;-75
2022/05/12 12:28:57;;;;;;;0.70;0.43;;;24.60;53.90;;;;;;5070713;28;20021;-75
2022/05/12 12:31:35;;;;;;;0.50;0.40;;;25.20;51.90;;;;;;5052696;28;20028;-75
2022/05/12 12:34:13;;;;;;;0.30;0.30;;;25.40;51.00;;;;;;5069756;28;20032;-76
2022/05/12 12:36:44;;;;;;;1.13;0.65;;;25.50;50.10;;;;;;5067037;28;20040;-75
2022/05/12 12:39:13;;;;;;;0.57;0.43;;;25.30;50.90;;;;;;5056424;28;20477;-76
2022/05/12 12:41:42;;;;;;;3.75;0.68;;;25.10;51.50;;;;;;5055779;28;20045;-78
2022/05/12 12:44:17;;;;;;;0.43;0.43;;;24.60;51.50;;;;;;5049974;28;20047;-79
2022/05/12 12:47:06;;;;;;;0.82;0.50;;;23.90;52.60;;;;;;5062701;28;20484;-78
2022/05/12 12:49:56;;;;;;;1.98;0.63;;;23.40;53.60;;;;;;5040507;28;20029;-78
2022/05/12 12:52:22;;;;;;;0.60;0.30;;;23.60;53.30;;;;;;5063465;28;20032;-76
2022/05/12 12:57:45;;;;;;;1.92;0.55;;;23.70;53.10;;;;;;5040998;28;20485;-77
2022/05/12 13:00:24;;;;;;;1.13;0.68;;;23.90;54.00;;;;;;5061356;28;20040;-77
2022/05/12 13:03:00;;;;;;;1.07;0.57;;;23.90;53.90;;;;;;5056722;28;20021;-83
2022/05/12 13:05:28;;;;;;;0.88;0.50;;;24.10;53.50;;;;;;5066664;28;20039;-80
2022/05/12 13:07:59;;;;;;;0.52;0.40;;;24.20;52.90;;;;;;5056846;28;20029;-77
2022/05/12 13:10:28;;;;;;;0.80;0.50;;;23.70;53.80;;;;;;5068065;28;20036;-78
2022/05/12 13:13:04;;;;;;;0.50;0.50;;;23.60;54.20;;;;;;5075258;28;20021;-80
2022/05/12 13:15:32;;;;;;;0.68;0.40;;;23.80;54.10;;;;;;5055930;28;20032;-78
2022/05/12 13:18:03;;;;;;;0.68;0.50;;;24.20;54.30;;;;;;5055003;28;20048;-77
2022/05/12 13:20:32;;;;;;;1.80;0.70;;;24.50;53.90;;;;;;5050925;28;20044;-77
2022/05/12 13:23:11;;;;;;;0.50;0.40;;;24.60;54.00;;;;;;5061451;28;20462;-79
2022/05/12 13:25:40;;;;;;;0.40;0.40;;;24.30;52.90;;;;;;5073918;28;20474;-78
2022/05/12 13:28:18;;;;;;;0.95;0.70;;;24.10;53.20;;;;;;5077207;28;20036;-78
2022/05/12 13:30:50;;;;;;;0.55;0.55;;;24.30;54.60;;;;;;5063674;28;20039;-79
2022/05/12 13:33:27;;;;;;;0.68;0.50;;;24.50;51.90;;;;;;5056603;28;20040;-78
2022/05/12 13:36:01;;;;;;;0.75;0.30;;;24.90;52.10;;;;;;5040526;28;20045;-78